Time;durP1;ratioP1;P1;durP2;ratioP2;P2;SDS_P1;SDS_P2;PMS_P1;PMS_P2;Temp;Humidity;BMP_temperature;BMP_pressure;BME280_temperature;BME280_humidity;BME280_pressure;Samples;Min_cycle;Max_cycle;Signal;HPM_P1;HPM_P2
2021/04/29 00:00:13;;;;;;;5.88;1.90;;;15.90;96.70;;;;;;4968394;28;20104;-77
2021/04/29 00:02:42;;;;;;;6.35;2.08;;;16.00;96.70;;;;;;4966622;28;20061;-77
2021/04/29 00:05:14;;;;;;;3.88;1.88;;;16.10;96.70;;;;;;4953906;28;20100;-76
2021/04/29 00:07:43;;;;;;;4.47;2.10;;;16.10;96.70;;;;;;4981378;28;20492;-77
2021/04/29 00:10:15;;;;;;;5.22;1.73;;;16.20;96.70;;;;;;4966124;28;20045;-76
2021/04/29 00:12:43;;;;;;;3.38;2.15;;;16.20;96.70;;;;;;4965992;28;20039;-76
2021/04/29 00:15:14;;;;;;;3.88;1.58;;;16.20;96.70;;;;;;4981128;28;20054;-76
2021/04/29 00:17:43;;;;;;;2.42;1.73;;;16.20;96.70;;;;;;4966002;28;20104;-76
2021/04/29 00:20:16;;;;;;;4.38;1.95;;;16.20;96.70;;;;;;4983376;28;20031;-78
2021/04/29 00:22:44;;;;;;;6.18;2.17;;;16.20;96.70;;;;;;4962983;28;20597;-76
2021/04/29 00:25:14;;;;;;;5.20;2.20;;;16.10;96.70;;;;;;4951884;28;20089;-76
2021/04/29 00:27:42;;;;;;;2.65;1.92;;;16.10;96.70;;;;;;4981318;28;20069;-77
2021/04/29 00:30:12;;;;;;;5.88;1.80;;;16.00;96.70;;;;;;4965366;28;20670;-77
2021/04/29 00:32:41;;;;;;;3.22;1.50;;;16.00;96.70;;;;;;4962346;28;20675;-76
2021/04/29 00:35:10;;;;;;;2.45;1.75;;;16.00;96.70;;;;;;4979442;28;20038;-76
2021/04/29 00:37:39;;;;;;;3.72;1.50;;;16.10;96.70;;;;;;4966798;28;20051;-76
2021/04/29 00:40:08;;;;;;;4.82;1.98;;;16.00;96.70;;;;;;4966689;28;20515;-76
2021/04/29 00:42:38;;;;;;;3.33;1.70;;;16.00;96.70;;;;;;4964593;28;20141;-76
2021/04/29 00:45:08;;;;;;;5.38;1.70;;;16.00;96.70;;;;;;4979327;28;20121;-76
2021/04/29 00:47:37;;;;;;;4.82;1.70;;;16.00;96.70;;;;;;4964092;28;20389;-76
2021/04/29 00:50:07;;;;;;;5.53;2.00;;;15.90;96.70;;;;;;4946402;28;20049;-76
2021/04/29 00:52:35;;;;;;;5.63;1.95;;;15.90;96.70;;;;;;4966644;28;20049;-76
2021/04/29 00:55:04;;;;;;;3.05;1.40;;;15.80;96.70;;;;;;4967356;28;20336;-76
2021/04/29 00:57:33;;;;;;;4.40;1.67;;;15.80;96.70;;;;;;4968039;28;20048;-76
2021/04/29 01:00:05;;;;;;;4.78;1.65;;;15.90;96.70;;;;;;4955895;28;20046;-76
2021/04/29 01:02:37;;;;;;;3.22;1.70;;;15.90;96.70;;;;;;4981364;28;20050;-76
2021/04/29 01:05:11;;;;;;;4.95;1.65;;;15.90;96.70;;;;;;4965729;28;20046;-76
2021/04/29 01:07:41;;;;;;;3.58;1.67;;;15.90;96.70;;;;;;4951578;28;20614;-76
2021/04/29 01:10:13;;;;;;;5.13;1.80;;;15.90;96.70;;;;;;4980553;28;20401;-76
2021/04/29 01:12:46;;;;;;;4.00;1.80;;;15.90;96.70;;;;;;4977250;28;20943;-76
2021/04/29 01:15:17;;;;;;;7.43;1.90;;;15.90;96.70;;;;;;4952433;28;20400;-76
2021/04/29 01:17:47;;;;;;;3.75;1.92;;;15.80;96.70;;;;;;4955742;28;20138;-76
2021/04/29 01:20:20;;;;;;;2.35;1.63;;;15.70;96.70;;;;;;4960564;28;20047;-77
2021/04/29 01:22:54;;;;;;;5.32;1.77;;;15.70;96.70;;;;;;4962274;28;20559;-76
2021/04/29 01:25:26;;;;;;;2.85;1.33;;;15.70;96.70;;;;;;4959625;28;20039;-76
2021/04/29 01:27:56;;;;;;;3.33;1.88;;;15.60;96.70;;;;;;4963021;28;20062;-76
2021/04/29 01:30:24;;;;;;;2.88;1.90;;;15.60;96.70;;;;;;4966373;28;20564;-76
2021/04/29 01:32:53;;;;;;;3.92;1.67;;;15.60;96.70;;;;;;4960630;28;20113;-76
2021/04/29 01:35:22;;;;;;;2.53;1.70;;;15.60;96.70;;;;;;4959428;28;20031;-76
2021/04/29 01:37:52;;;;;;;4.10;1.70;;;15.70;96.70;;;;;;4962082;28;20046;-76
2021/04/29 01:40:21;;;;;;;3.30;2.13;;;15.70;96.70;;;;;;4962578;28;20051;-76
2021/04/29 01:42:49;;;;;;;3.60;1.92;;;15.70;96.70;;;;;;4959882;28;20101;-76
2021/04/29 01:45:19;;;;;;;4.72;2.20;;;15.80;96.70;;;;;;4961892;28;20153;-76
2021/04/29 01:47:46;;;;;;;5.40;2.20;;;15.80;96.70;;;;;;4962673;28;20121;-76
2021/04/29 01:50:16;;;;;;;5.05;2.17;;;15.80;96.70;;;;;;4956323;28;20043;-77
2021/04/29 01:52:44;;;;;;;4.20;2.30;;;15.90;96.70;;;;;;4943082;28;20049;-77
2021/04/29 01:55:13;;;;;;;5.03;1.90;;;16.00;96.70;;;;;;4961988;28;20050;-77
2021/04/29 01:57:41;;;;;;;3.03;1.95;;;16.00;96.70;;;;;;4957985;28;20055;-76
2021/04/29 02:00:10;;;;;;;2.45;1.42;;;16.00;96.70;;;;;;4957160;28;20055;-77
2021/04/29 02:02:39;;;;;;;5.47;1.60;;;16.10;96.70;;;;;;4959416;28;20051;-77
2021/04/29 02:05:08;;;;;;;2.60;1.42;;;16.10;96.70;;;;;;4940950;28;20043;-77
2021/04/29 02:07:36;;;;;;;4.20;1.65;;;16.10;96.70;;;;;;4959853;28;20117;-77
2021/04/29 02:10:05;;;;;;;4.30;1.80;;;16.10;96.70;;;;;;4960936;28;20069;-77
2021/04/29 02:12:38;;;;;;;3.65;1.75;;;16.10;96.70;;;;;;4961598;28;20062;-76
2021/04/29 02:15:11;;;;;;;3.30;1.58;;;16.10;96.70;;;;;;4945978;28;20063;-76
2021/04/29 02:17:44;;;;;;;2.55;1.92;;;16.00;96.70;;;;;;4960678;28;20116;-77
2021/04/29 02:20:13;;;;;;;3.20;1.73;;;16.00;96.70;;;;;;4972114;28;20333;-77
2021/04/29 02:22:43;;;;;;;5.50;2.00;;;16.00;96.70;;;;;;4941973;28;20491;-77
2021/04/29 02:25:12;;;;;;;4.30;1.90;;;15.90;96.70;;;;;;4958660;28;20653;-75
2021/04/29 02:27:41;;;;;;;3.40;1.88;;;15.90;96.70;;;;;;4972130;28;20046;-75
2021/04/29 02:30:11;;;;;;;4.40;2.10;;;15.90;96.70;;;;;;4942658;28;20157;-75
2021/04/29 02:32:41;;;;;;;4.07;2.20;;;15.90;96.70;;;;;;4960156;28;20122;-75
2021/04/29 02:35:12;;;;;;;4.40;2.58;;;15.90;96.70;;;;;;4961127;28;20070;-75
2021/04/29 02:37:40;;;;;;;5.10;2.70;;;15.80;96.70;;;;;;4943034;28;20055;-75
2021/04/29 02:40:10;;;;;;;8.05;2.50;;;15.80;96.70;;;;;;4962973;28;20050;-75
2021/04/29 02:42:38;;;;;;;6.00;2.67;;;15.80;96.70;;;;;;4960967;28;20046;-75
2021/04/29 02:45:08;;;;;;;3.10;2.50;;;15.90;96.70;;;;;;4962922;28;20054;-75
2021/04/29 02:47:38;;;;;;;4.38;2.63;;;15.90;96.70;;;;;;4959230;28;20448;-75
2021/04/29 02:50:10;;;;;;;4.55;2.40;;;16.00;96.70;;;;;;4960359;28;20049;-75
2021/04/29 02:52:38;;;;;;;5.53;2.47;;;16.00;96.70;;;;;;4957100;28;20065;-75
2021/04/29 02:55:08;;;;;;;4.13;2.72;;;16.10;96.70;;;;;;4962470;28;20038;-75
2021/04/29 02:57:36;;;;;;;4.45;2.08;;;16.10;96.70;;;;;;4974936;28;20043;-74
2021/04/29 03:00:07;;;;;;;6.10;2.13;;;16.10;96.70;;;;;;4974212;28;20046;-75
2021/04/29 03:02:35;;;;;;;5.60;2.38;;;16.10;96.70;;;;;;4957754;28;20207;-75
2021/04/29 03:05:05;;;;;;;7.30;2.78;;;16.10;96.70;;;;;;4959479;28;20047;-75
2021/04/29 03:07:34;;;;;;;3.85;2.80;;;16.00;96.70;;;;;;4955959;28;20137;-75
2021/04/29 03:10:02;;;;;;;4.10;2.70;;;16.00;96.70;;;;;;4959266;28;20110;-75
2021/04/29 03:12:30;;;;;;;4.13;2.40;;;15.90;96.70;;;;;;4960590;28;20155;-75
2021/04/29 03:14:57;;;;;;;5.30;2.47;;;15.90;96.70;;;;;;4967900;28;20061;-75
2021/04/29 03:17:26;;;;;;;3.30;2.10;;;16.00;96.70;;;;;;4980226;28;20117;-75
2021/04/29 03:19:54;;;;;;;4.97;2.20;;;16.10;96.70;;;;;;4976991;28;20046;-75
2021/04/29 03:22:22;;;;;;;5.53;2.55;;;16.10;96.70;;;;;;4962892;28;20172;-75
2021/04/29 03:24:51;;;;;;;3.92;2.15;;;16.20;96.70;;;;;;4976541;28;20034;-75
2021/04/29 03:27:22;;;;;;;3.97;2.00;;;16.20;96.70;;;;;;4948408;28;20046;-75
2021/04/29 03:29:50;;;;;;;2.78;1.92;;;16.10;96.70;;;;;;4976727;28;20046;-75
2021/04/29 03:32:19;;;;;;;4.20;2.10;;;16.10;96.70;;;;;;4978271;28;20042;-75
2021/04/29 03:34:47;;;;;;;3.53;2.08;;;16.10;96.70;;;;;;4964152;28;20057;-74
2021/04/29 03:37:15;;;;;;;4.85;2.10;;;16.10;96.70;;;;;;4980005;28;20042;-75
2021/04/29 03:39:43;;;;;;;3.38;2.20;;;16.20;96.70;;;;;;4977865;28;20046;-75
2021/04/29 03:42:13;;;;;;;4.63;2.17;;;16.20;96.70;;;;;;4944580;28;20161;-75
2021/04/29 03:44:41;;;;;;;5.35;2.25;;;16.20;96.70;;;;;;4975962;28;20041;-75
2021/04/29 03:47:09;;;;;;;3.83;1.95;;;16.20;96.70;;;;;;4979235;28;20064;-75
2021/04/29 03:49:37;;;;;;;2.97;2.13;;;16.20;96.70;;;;;;4977884;28;20046;-75
2021/04/29 03:52:06;;;;;;;3.20;1.63;;;16.20;96.70;;;;;;4963829;28;20042;-75
2021/04/29 03:54:35;;;;;;;3.58;1.80;;;16.20;96.70;;;;;;4963323;28;20043;-75
2021/04/29 03:57:05;;;;;;;3.85;2.03;;;16.20;96.70;;;;;;4962046;28;20085;-75
2021/04/29 03:59:34;;;;;;;3.88;2.15;;;16.20;96.70;;;;;;4980125;28;20516;-77
2021/04/29 04:02:02;;;;;;;3.80;2.33;;;16.20;96.70;;;;;;4965081;28;20360;-76
2021/04/29 04:04:31;;;;;;;4.38;2.50;;;16.20;96.70;;;;;;4967711;28;20133;-77
2021/04/29 04:06:59;;;;;;;3.83;2.30;;;16.20;96.70;;;;;;4953252;28;20050;-77
2021/04/29 04:09:27;;;;;;;3.80;2.50;;;16.10;96.70;;;;;;4982926;28;20046;-77
2021/04/29 04:11:55;;;;;;;4.10;2.58;;;16.20;96.70;;;;;;4965622;28;20046;-76
2021/04/29 04:14:23;;;;;;;4.10;2.30;;;16.10;96.70;;;;;;4962666;28;20524;-77
2021/04/29 04:16:52;;;;;;;4.10;2.50;;;16.10;96.70;;;;;;4963175;28;20408;-76
2021/04/29 04:19:20;;;;;;;5.35;2.60;;;16.10;96.70;;;;;;4961217;28;20045;-77
2021/04/29 04:21:48;;;;;;;5.22;2.70;;;16.10;96.70;;;;;;4963822;28;20065;-77
2021/04/29 04:24:16;;;;;;;3.75;2.10;;;16.20;96.70;;;;;;4948507;28;20054;-77
2021/04/29 04:26:44;;;;;;;5.10;2.28;;;16.20;96.70;;;;;;4965074;28;20146;-77
2021/04/29 04:29:12;;;;;;;6.40;2.90;;;16.20;96.70;;;;;;4967084;28;20039;-77
2021/04/29 04:31:39;;;;;;;7.00;2.53;;;16.20;96.70;;;;;;4961935;28;20441;-77
2021/04/29 04:34:08;;;;;;;5.00;2.70;;;16.20;96.70;;;;;;4964573;28;20057;-77
2021/04/29 04:36:36;;;;;;;7.30;2.38;;;16.30;96.70;;;;;;4962140;28;20053;-77
2021/04/29 04:39:05;;;;;;;6.40;2.30;;;16.20;96.70;;;;;;4976913;28;20447;-76
2021/04/29 04:41:33;;;;;;;2.30;1.77;;;16.30;96.70;;;;;;4961393;28;20043;-76
2021/04/29 04:44:01;;;;;;;4.35;2.20;;;16.30;96.70;;;;;;4974039;28;20050;-76
2021/04/29 04:46:29;;;;;;;5.60;2.78;;;16.30;96.70;;;;;;4963929;28;20033;-76
2021/04/29 04:48:57;;;;;;;4.15;2.58;;;16.20;96.70;;;;;;4970895;28;20042;-78
2021/04/29 04:51:26;;;;;;;4.50;2.75;;;16.20;96.70;;;;;;4958354;28;20089;-76
2021/04/29 04:53:54;;;;;;;4.40;2.75;;;16.20;96.70;;;;;;4967025;28;20484;-77
2021/04/29 04:56:22;;;;;;;6.40;3.20;;;16.20;96.70;;;;;;4954557;28;20043;-77
2021/04/29 04:58:50;;;;;;;5.28;3.28;;;16.20;96.70;;;;;;4961078;28;20674;-77
2021/04/29 05:01:17;;;;;;;6.22;2.80;;;16.20;96.70;;;;;;4974656;28;20038;-77
2021/04/29 05:03:46;;;;;;;8.02;3.00;;;16.20;96.70;;;;;;4961510;28;20035;-77
2021/04/29 05:06:14;;;;;;;5.10;3.17;;;16.20;96.70;;;;;;4944636;28;20457;-78
2021/04/29 05:08:43;;;;;;;3.25;2.85;;;16.20;96.70;;;;;;4964847;28;20042;-77
2021/04/29 05:11:11;;;;;;;6.05;2.85;;;16.20;96.70;;;;;;4959485;28;20043;-77
2021/04/29 05:13:39;;;;;;;3.70;2.78;;;16.20;96.70;;;;;;4963036;28;20050;-78
2021/04/29 05:16:06;;;;;;;4.88;3.22;;;16.20;96.70;;;;;;4964891;28;20054;-77
2021/04/29 05:18:35;;;;;;;4.55;3.10;;;16.20;96.70;;;;;;4961700;28;20070;-77
2021/04/29 05:21:03;;;;;;;6.47;3.30;;;16.20;96.70;;;;;;4963729;28;20374;-77
2021/04/29 05:23:31;;;;;;;5.18;3.33;;;16.20;96.70;;;;;;4963555;28;20066;-78
2021/04/29 05:26:00;;;;;;;7.82;4.10;;;16.20;96.70;;;;;;4948495;28;20051;-77
2021/04/29 05:28:27;;;;;;;4.80;3.60;;;16.30;96.70;;;;;;4945760;28;20852;-78
2021/04/29 05:30:56;;;;;;;5.93;3.75;;;16.30;96.70;;;;;;4961546;28;20058;-77
2021/04/29 05:33:24;;;;;;;4.57;3.50;;;16.30;96.70;;;;;;4960554;28;20456;-77
2021/04/29 05:35:52;;;;;;;5.90;3.30;;;16.30;96.70;;;;;;4962090;28;20030;-77
2021/04/29 05:38:19;;;;;;;4.53;3.63;;;16.30;96.70;;;;;;4962796;28;20054;-78
2021/04/29 05:40:49;;;;;;;5.40;3.60;;;16.30;96.70;;;;;;4961015;28;20043;-78
2021/04/29 05:43:18;;;;;;;3.45;3.13;;;16.30;96.70;;;;;;4960268;28;20437;-77
2021/04/29 05:45:45;;;;;;;6.10;4.05;;;16.30;96.70;;;;;;4966708;28;20043;-77
2021/04/29 05:48:13;;;;;;;6.35;3.42;;;16.30;96.70;;;;;;4960990;28;20045;-77
2021/04/29 05:50:40;;;;;;;6.28;4.30;;;16.40;96.70;;;;;;4958936;28;20062;-78
2021/04/29 05:53:08;;;;;;;6.28;3.45;;;16.40;96.70;;;;;;4946829;28;20042;-77
2021/04/29 05:55:35;;;;;;;5.53;3.30;;;16.50;96.70;;;;;;4944476;28;20047;-74
2021/04/29 05:58:03;;;;;;;5.20;3.65;;;16.50;96.70;;;;;;4960387;28;20232;-76
2021/04/29 06:00:34;;;;;;;7.47;3.72;;;16.50;96.70;;;;;;4960234;28;20041;-76
2021/04/29 06:03:02;;;;;;;5.90;3.78;;;16.60;96.70;;;;;;4961515;28;20054;-78
2021/04/29 06:05:30;;;;;;;5.13;3.40;;;16.60;96.70;;;;;;4947017;28;20045;-75
2021/04/29 06:07:58;;;;;;;4.38;3.03;;;16.70;96.70;;;;;;4960349;28;20083;-75
2021/04/29 06:10:26;;;;;;;5.07;3.67;;;16.70;96.70;;;;;;4960655;28;20038;-75
2021/04/29 06:12:54;;;;;;;5.55;3.15;;;16.80;96.70;;;;;;4966338;28;20045;-75
2021/04/29 06:15:22;;;;;;;7.10;3.60;;;16.90;96.70;;;;;;4913731;28;1142031;-76
2021/04/29 06:17:51;;;;;;;5.53;3.13;;;16.90;96.70;;;;;;4956577;28;20038;-76
2021/04/29 06:20:19;;;;;;;7.53;3.00;;;17.00;96.70;;;;;;4960857;28;20089;-76
2021/04/29 06:22:47;;;;;;;4.45;3.28;;;17.10;96.70;;;;;;4960555;28;20055;-75
2021/04/29 06:25:15;;;;;;;8.02;3.92;;;17.10;96.70;;;;;;4959487;28;20488;-76
2021/04/29 06:27:43;;;;;;;16.25;3.72;;;17.10;96.70;;;;;;4976467;28;20567;-77
2021/04/29 06:30:11;;;;;;;5.85;3.47;;;17.20;96.70;;;;;;4962652;28;20414;-78
2021/04/29 06:32:39;;;;;;;5.13;3.47;;;17.30;96.70;;;;;;4959493;28;20639;-77
2021/04/29 06:35:10;;;;;;;8.48;5.13;;;17.40;96.70;;;;;;4961055;28;20055;-77
2021/04/29 06:37:37;;;;;;;6.20;4.85;;;17.40;96.70;;;;;;4963163;28;20054;-77
2021/04/29 06:40:06;;;;;;;8.30;4.93;;;17.50;96.70;;;;;;4959868;28;20086;-77
2021/04/29 06:42:34;;;;;;;7.95;4.07;;;17.60;96.70;;;;;;4962547;28;20046;-76
2021/04/29 06:45:02;;;;;;;5.40;3.50;;;17.60;96.70;;;;;;4964772;28;20146;-77
2021/04/29 06:47:33;;;;;;;5.88;3.38;;;17.60;96.70;;;;;;4954511;28;20506;-78
2021/04/29 06:50:01;;;;;;;8.40;3.83;;;17.70;96.70;;;;;;4961529;28;20035;-77
2021/04/29 06:52:29;;;;;;;8.45;3.70;;;17.70;96.70;;;;;;4950094;28;20046;-76
2021/04/29 06:54:57;;;;;;;5.28;2.92;;;17.70;96.70;;;;;;4963042;28;20556;-77
2021/04/29 06:57:25;;;;;;;5.50;2.70;;;17.80;96.70;;;;;;4963963;28;20085;-77
2021/04/29 06:59:52;;;;;;;6.35;3.13;;;17.80;96.70;;;;;;4962067;28;20039;-77
2021/04/29 07:02:20;;;;;;;6.32;3.35;;;17.90;96.70;;;;;;4966206;28;20050;-76
2021/04/29 07:04:58;;;;;;;6.35;3.40;;;17.90;96.70;;;;;;4956443;28;20045;-77
2021/04/29 07:07:26;;;;;;;9.48;3.20;;;18.00;96.70;;;;;;4957492;28;20042;-76
2021/04/29 07:09:54;;;;;;;5.93;2.45;;;18.10;96.70;;;;;;4944992;28;20150;-76
2021/04/29 07:12:22;;;;;;;5.88;2.72;;;18.00;96.70;;;;;;4963326;28;20058;-76
2021/04/29 07:14:50;;;;;;;5.50;2.85;;;17.90;96.70;;;;;;4945709;28;21163;-77
2021/04/29 07:17:17;;;;;;;6.63;3.30;;;17.90;96.70;;;;;;4960991;28;20051;-77
2021/04/29 07:19:45;;;;;;;8.52;2.85;;;17.90;96.70;;;;;;4958791;28;20047;-77
2021/04/29 07:22:13;;;;;;;4.95;2.45;;;18.00;96.70;;;;;;4946200;28;20319;-77
2021/04/29 07:24:43;;;;;;;5.10;2.30;;;18.00;96.70;;;;;;4957626;28;20568;-77
2021/04/29 07:27:11;;;;;;;5.03;2.22;;;18.00;96.70;;;;;;4962726;28;20061;-77
2021/04/29 07:29:39;;;;;;;6.75;2.60;;;18.00;96.70;;;;;;4962050;28;20046;-77
2021/04/29 07:32:07;;;;;;;3.80;2.10;;;18.10;96.70;;;;;;4963438;28;20089;-76
2021/04/29 07:34:35;;;;;;;5.38;2.00;;;18.00;96.70;;;;;;4958585;28;20521;-76
2021/04/29 07:37:04;;;;;;;3.70;1.65;;;18.00;96.70;;;;;;4964768;28;20043;-77
2021/04/29 07:39:33;;;;;;;6.80;2.58;;;18.00;96.70;;;;;;4957835;28;20514;-77
2021/04/29 07:42:00;;;;;;;5.80;1.98;;;18.00;96.70;;;;;;4972390;28;20151;-77
2021/04/29 07:44:30;;;;;;;4.45;1.85;;;17.90;96.70;;;;;;4963516;28;20477;-76
2021/04/29 07:46:59;;;;;;;4.15;1.85;;;17.90;96.70;;;;;;4969352;28;20121;-78
2021/04/29 07:49:28;;;;;;;4.88;1.85;;;17.80;96.70;;;;;;4965578;28;20038;-78
2021/04/29 07:51:56;;;;;;;5.07;1.92;;;17.80;96.70;;;;;;4965440;28;20519;-78
2021/04/29 07:54:24;;;;;;;5.15;2.00;;;17.80;96.70;;;;;;4964443;28;20045;-77
2021/04/29 07:56:51;;;;;;;5.47;1.98;;;17.80;96.70;;;;;;4975402;28;20031;-77
2021/04/29 07:59:19;;;;;;;4.93;1.92;;;17.70;96.70;;;;;;4947029;28;20053;-77
2021/04/29 08:01:48;;;;;;;4.80;2.17;;;17.60;96.70;;;;;;4965496;28;20061;-76
2021/04/29 08:04:15;;;;;;;3.13;1.58;;;17.60;96.70;;;;;;4950221;28;20097;-77
2021/04/29 08:06:43;;;;;;;5.78;2.00;;;17.60;96.70;;;;;;4964085;28;20047;-76
2021/04/29 08:09:11;;;;;;;5.90;2.15;;;17.60;96.70;;;;;;4965265;28;20035;-77
2021/04/29 08:11:38;;;;;;;6.50;3.28;;;17.60;96.70;;;;;;4965236;28;20035;-77
2021/04/29 08:14:06;;;;;;;12.45;8.70;;;17.50;96.70;;;;;;4965655;28;20080;-77
2021/04/29 08:16:35;;;;;;;12.85;9.35;;;17.60;96.70;;;;;;4968631;28;20963;-75
2021/04/29 08:19:04;;;;;;;16.60;12.38;;;17.50;96.70;;;;;;4967346;28;20042;-76
2021/04/29 08:21:46;;;;;;;49.72;38.00;;;17.40;96.70;;;;;;4967046;28;20054;-76
2021/04/29 08:24:14;;;;;;;19.63;13.48;;;17.30;96.70;;;;;;4984164;28;20037;-76
2021/04/29 08:26:42;;;;;;;14.23;7.43;;;17.20;96.70;;;;;;4951114;28;20501;-76
2021/04/29 08:29:10;;;;;;;15.60;10.38;;;17.20;96.70;;;;;;4968862;28;20474;-76
2021/04/29 08:31:38;;;;;;;10.05;7.28;;;17.10;96.70;;;;;;4983748;28;20334;-76
2021/04/29 08:34:08;;;;;;;9.95;5.15;;;17.10;96.70;;;;;;4970065;28;20065;-76
2021/04/29 08:36:35;;;;;;;7.28;4.20;;;17.10;96.70;;;;;;4964582;28;20038;-77
2021/04/29 08:39:05;;;;;;;17.73;12.90;;;17.10;96.70;;;;;;4980745;28;20046;-76
2021/04/29 08:41:33;;;;;;;10.95;7.63;;;17.10;96.70;;;;;;4965141;28;20160;-76
2021/04/29 08:44:01;;;;;;;15.98;11.32;;;17.10;96.70;;;;;;4971886;28;20443;-77
2021/04/29 08:46:28;;;;;;;13.60;9.73;;;17.10;96.70;;;;;;4983094;28;20457;-77
2021/04/29 08:48:58;;;;;;;8.13;4.25;;;17.10;96.70;;;;;;4984132;28;20593;-75
2021/04/29 08:51:27;;;;;;;7.53;3.38;;;17.10;96.70;;;;;;4980330;28;20034;-76
2021/04/29 08:53:56;;;;;;;6.60;2.78;;;17.10;96.70;;;;;;4967197;28;20088;-76
2021/04/29 08:56:27;;;;;;;8.90;5.95;;;17.10;96.70;;;;;;4982832;28;20082;-77
2021/04/29 08:58:57;;;;;;;9.93;3.97;;;17.10;96.70;;;;;;4969731;28;20041;-77
2021/04/29 09:01:25;;;;;;;10.75;5.22;;;17.10;96.70;;;;;;4980986;28;20132;-77
2021/04/29 09:03:53;;;;;;;11.80;7.47;;;17.10;96.70;;;;;;4971035;28;20080;-77
2021/04/29 09:06:32;;;;;;;4.78;3.28;;;17.10;96.70;;;;;;4964900;28;20073;-77
2021/04/29 09:08:59;;;;;;;15.02;6.93;;;17.10;96.70;;;;;;4982045;28;20867;-77
2021/04/29 09:11:27;;;;;;;22.27;12.48;;;17.10;96.70;;;;;;4963724;28;20038;-77
2021/04/29 09:13:57;;;;;;;5.78;3.20;;;17.20;96.70;;;;;;4986361;28;20092;-77
2021/04/29 09:16:37;;;;;;;6.18;2.72;;;17.20;96.70;;;;;;4965686;28;20046;-77
2021/04/29 09:19:17;;;;;;;8.23;2.70;;;17.30;96.70;;;;;;4982198;28;20336;-76
2021/04/29 09:21:47;;;;;;;9.85;3.95;;;17.30;96.70;;;;;;4955949;28;20058;-76
2021/04/29 09:24:16;;;;;;;5.43;2.30;;;17.30;96.70;;;;;;4978460;28;20058;-77
2021/04/29 09:26:43;;;;;;;4.18;2.22;;;17.50;96.70;;;;;;4950700;28;20046;-77
2021/04/29 09:29:15;;;;;;;5.10;2.15;;;17.70;96.70;;;;;;4965912;28;20069;-76
2021/04/29 09:31:47;;;;;;;6.72;2.53;;;17.90;96.70;;;;;;4980737;28;20046;-76
2021/04/29 09:34:18;;;;;;;7.72;1.98;;;18.00;96.70;;;;;;4965705;28;20141;-77
2021/04/29 09:36:46;;;;;;;9.05;3.20;;;18.20;96.70;;;;;;4981113;28;20038;-76
2021/04/29 09:39:17;;;;;;;6.97;2.42;;;18.20;96.70;;;;;;4966180;28;20046;-77
2021/04/29 09:41:47;;;;;;;14.80;4.70;;;18.20;96.70;;;;;;4969405;28;20042;-77
2021/04/29 09:44:16;;;;;;;6.35;2.80;;;18.20;96.70;;;;;;4950604;28;20500;-77
2021/04/29 09:46:47;;;;;;;6.22;3.45;;;18.30;96.70;;;;;;4980705;28;20092;-77
2021/04/29 09:49:19;;;;;;;5.47;2.53;;;18.30;96.70;;;;;;4966821;28;20047;-77
2021/04/29 09:51:50;;;;;;;15.35;7.18;;;18.20;96.70;;;;;;4987970;28;20236;-77
2021/04/29 09:54:28;;;;;;;8.73;4.45;;;18.20;96.70;;;;;;4949406;28;20054;-77
2021/04/29 09:57:00;;;;;;;10.05;4.45;;;18.10;96.70;;;;;;4954495;28;20047;-78
2021/04/29 09:59:30;;;;;;;5.70;2.50;;;17.90;96.70;;;;;;4962632;28;20393;-77
2021/04/29 10:01:59;;;;;;;12.25;5.05;;;17.90;96.70;;;;;;4977461;28;20048;-76
2021/04/29 10:04:29;;;;;;;6.30;2.97;;;18.00;96.70;;;;;;4982486;28;20089;-77
2021/04/29 10:07:01;;;;;;;7.40;2.67;;;18.00;96.70;;;;;;4982454;28;20381;-77
2021/04/29 10:09:31;;;;;;;9.25;3.00;;;17.90;96.70;;;;;;4983045;28;20496;-77
2021/04/29 10:12:04;;;;;;;5.82;2.90;;;17.90;96.70;;;;;;4981410;28;20038;-77
2021/04/29 10:14:34;;;;;;;5.65;2.85;;;17.80;96.70;;;;;;4982376;28;20058;-77
2021/04/29 10:17:04;;;;;;;6.88;4.60;;;17.80;96.70;;;;;;4977355;28;20548;-77
2021/04/29 10:19:38;;;;;;;9.98;4.78;;;17.80;96.70;;;;;;4982345;28;20073;-76
2021/04/29 10:22:09;;;;;;;8.18;4.90;;;17.80;96.70;;;;;;4982382;28;20038;-77
2021/04/29 10:24:41;;;;;;;10.30;5.30;;;17.80;96.70;;;;;;4967512;28;20050;-77
2021/04/29 10:27:11;;;;;;;5.90;3.17;;;17.80;96.70;;;;;;4966902;28;20062;-76
2021/04/29 10:29:39;;;;;;;6.30;3.53;;;17.80;96.70;;;;;;4969414;28;20537;-76
2021/04/29 10:32:11;;;;;;;6.97;3.67;;;17.80;96.70;;;;;;4964982;28;20038;-76
2021/04/29 10:34:44;;;;;;;7.47;3.78;;;17.80;96.70;;;;;;4963927;28;20101;-76
2021/04/29 10:37:19;;;;;;;6.75;3.58;;;17.90;96.70;;;;;;4978935;28;20145;-77
2021/04/29 10:39:52;;;;;;;8.68;3.72;;;17.80;96.70;;;;;;4947305;28;20473;-77
2021/04/29 10:42:21;;;;;;;6.13;2.88;;;17.80;96.70;;;;;;4947023;28;20061;-76
2021/04/29 10:44:51;;;;;;;4.70;2.15;;;17.90;96.70;;;;;;4960262;28;20042;-77
2021/04/29 10:47:25;;;;;;;6.25;2.22;;;18.00;96.70;;;;;;4961830;28;20043;-77
2021/04/29 10:50:06;;;;;;;6.32;2.55;;;18.30;96.70;;;;;;4981714;28;20045;-77
2021/04/29 10:52:47;;;;;;;6.18;2.42;;;18.80;96.70;;;;;;4945832;28;20046;-76
2021/04/29 10:55:23;;;;;;;6.43;2.20;;;19.20;96.70;;;;;;4966809;28;20419;-76
2021/04/29 10:57:52;;;;;;;2.78;1.67;;;19.60;96.70;;;;;;4962836;28;20899;-77
2021/04/29 11:00:21;;;;;;;3.88;2.17;;;19.70;96.70;;;;;;4982884;28;20073;-77
2021/04/29 11:02:58;;;;;;;3.92;2.65;;;19.60;96.70;;;;;;4962063;28;20054;-77
2021/04/29 11:05:27;;;;;;;5.30;2.92;;;19.60;96.70;;;;;;4980781;28;20078;-77
2021/04/29 11:08:03;;;;;;;4.57;2.85;;;19.60;96.70;;;;;;4961520;28;20042;-77
2021/04/29 11:10:33;;;;;;;3.75;2.20;;;19.50;96.70;;;;;;4978629;28;20046;-76
2021/04/29 11:13:02;;;;;;;2.33;1.48;;;19.50;96.70;;;;;;4960138;28;20042;-76
2021/04/29 11:15:32;;;;;;;5.03;2.00;;;19.40;96.70;;;;;;4962909;28;20706;-76
2021/04/29 11:18:05;;;;;;;5.90;2.55;;;19.50;96.70;;;;;;4963732;28;20069;-76
2021/04/29 11:20:46;;;;;;;4.15;2.22;;;19.50;96.70;;;;;;4974794;28;20049;-76
2021/04/29 11:23:16;;;;;;;6.55;2.58;;;19.50;96.70;;;;;;4962274;28;20098;-76
2021/04/29 11:25:45;;;;;;;3.67;1.90;;;19.70;96.70;;;;;;4958624;28;20154;-76
2021/04/29 11:28:14;;;;;;;3.03;1.90;;;19.80;96.70;;;;;;4961028;28;20045;-76
2021/04/29 11:30:42;;;;;;;4.30;2.38;;;19.70;96.70;;;;;;4960978;28;20035;-75
2021/04/29 11:33:12;;;;;;;4.78;1.85;;;19.70;96.70;;;;;;4943775;28;20141;-77
2021/04/29 11:35:42;;;;;;;4.72;2.33;;;19.70;96.70;;;;;;4945006;28;20315;-78
2021/04/29 11:38:12;;;;;;;5.00;2.38;;;19.70;96.70;;;;;;4962783;28;20042;-78
2021/04/29 11:40:42;;;;;;;5.20;2.70;;;19.70;96.70;;;;;;4960263;28;20667;-78
2021/04/29 11:43:11;;;;;;;4.75;2.10;;;19.70;96.70;;;;;;4959129;28;20454;-77
2021/04/29 11:45:43;;;;;;;4.15;2.30;;;19.70;96.70;;;;;;4966395;28;20432;-80
2021/04/29 11:48:12;;;;;;;4.88;2.53;;;19.70;96.70;;;;;;4963770;28;20062;-79
2021/04/29 11:50:44;;;;;;;5.93;2.20;;;19.80;96.70;;;;;;4962844;28;20038;-77
2021/04/29 11:53:13;;;;;;;5.68;2.28;;;19.70;96.70;;;;;;4982729;28;20039;-79
2021/04/29 11:55:44;;;;;;;5.30;2.10;;;19.60;96.70;;;;;;4960497;28;20073;-79
2021/04/29 11:58:15;;;;;;;5.18;2.80;;;19.30;96.70;;;;;;4957151;28;20059;-77
2021/04/29 12:00:45;;;;;;;6.93;3.25;;;19.20;96.70;;;;;;4963745;28;20361;-79
2021/04/29 12:03:15;;;;;;;6.32;2.50;;;19.10;96.70;;;;;;4954726;28;20043;-78
2021/04/29 12:05:48;;;;;;;5.13;2.25;;;19.00;96.70;;;;;;4957188;28;20051;-78
2021/04/29 12:08:19;;;;;;;9.10;3.45;;;18.90;96.70;;;;;;4942586;28;20628;-78
2021/04/29 12:10:51;;;;;;;7.60;3.60;;;18.70;96.70;;;;;;4964087;28;20051;-79
2021/04/29 12:13:29;;;;;;;7.38;3.03;;;18.60;96.70;;;;;;4960312;28;20051;-77
2021/04/29 12:15:58;;;;;;;11.10;3.50;;;18.40;96.70;;;;;;4960108;28;20046;-78
2021/04/29 12:18:27;;;;;;;9.88;5.10;;;18.30;96.70;;;;;;4962542;28;20053;-79
2021/04/29 12:20:57;;;;;;;9.25;4.07;;;18.10;96.70;;;;;;4965444;28;20046;-76
2021/04/29 12:23:25;;;;;;;6.20;3.28;;;17.90;96.70;;;;;;4961591;28;20047;-76
2021/04/29 12:26:02;;;;;;;6.20;3.40;;;17.80;96.70;;;;;;4945890;28;20066;-76
2021/04/29 12:28:32;;;;;;;7.97;3.67;;;17.80;96.70;;;;;;4958183;28;20411;-76
2021/04/29 12:31:12;;;;;;;5.68;3.17;;;17.80;96.70;;;;;;4966324;28;20051;-76
2021/04/29 12:33:50;;;;;;;7.40;2.85;;;17.80;96.70;;;;;;4963287;28;20050;-76
2021/04/29 12:36:19;;;;;;;6.85;3.60;;;17.80;96.70;;;;;;4962623;28;20404;-77
2021/04/29 12:38:47;;;;;;;7.40;3.67;;;17.80;96.70;;;;;;4944158;28;20594;-76
2021/04/29 12:41:17;;;;;;;8.40;3.78;;;17.80;96.70;;;;;;4948335;28;20066;-76
2021/04/29 12:43:57;;;;;;;9.27;4.28;;;17.90;96.70;;;;;;4961194;28;20102;-76
2021/04/29 12:46:33;;;;;;;6.97;3.58;;;18.20;96.70;;;;;;4962224;28;20485;-77
2021/04/29 12:49:03;;;;;;;9.98;4.10;;;18.30;96.70;;;;;;4964907;28;20050;-77
2021/04/29 12:51:34;;;;;;;7.07;3.90;;;18.30;96.70;;;;;;4964552;28;20101;-76
2021/04/29 12:54:07;;;;;;;9.02;4.30;;;18.30;96.70;;;;;;4961843;28;20081;-75
2021/04/29 12:56:37;;;;;;;10.15;4.22;;;18.30;96.70;;;;;;4963624;28;20047;-75